sensor_id;sensor_type;location;lat;lon;timestamp;P1;durP1;ratioP1;P2;durP2;ratioP2
5465;SDS011;2755;50.728;7.108;2023-07-31T00:00:40;180.30;;;132.90;;
5465;SDS011;2755;50.728;7.108;2023-07-31T00:03:06;179.93;;;131.57;;
5465;SDS011;2755;50.728;7.108;2023-07-31T00:05:31;181.27;;;135.73;;
5465;SDS011;2755;50.728;7.108;2023-07-31T00:07:57;182.67;;;135.80;;
5465;SDS011;2755;50.728;7.108;2023-07-31T00:10:22;181.63;;;136.23;;
5465;SDS011;2755;50.728;7.108;2023-07-31T00:12:48;178.30;;;127.57;;
5465;SDS011;2755;50.728;7.108;2023-07-31T00:15:14;181.23;;;132.77;;
5465;SDS011;2755;50.728;7.108;2023-07-31T00:17:39;179.87;;;131.50;;
5465;SDS011;2755;50.728;7.108;2023-07-31T00:20:05;175.73;;;127.47;;
5465;SDS011;2755;50.728;7.108;2023-07-31T00:22:31;183.17;;;135.67;;
5465;SDS011;2755;50.728;7.108;2023-07-31T00:24:56;179.37;;;131.27;;
5465;SDS011;2755;50.728;7.108;2023-07-31T00:27:22;181.77;;;135.23;;
5465;SDS011;2755;50.728;7.108;2023-07-31T00:29:48;182.37;;;135.03;;
5465;SDS011;2755;50.728;7.108;2023-07-31T00:32:13;181.50;;;133.33;;
5465;SDS011;2755;50.728;7.108;2023-07-31T00:34:39;182.03;;;135.17;;
5465;SDS011;2755;50.728;7.108;2023-07-31T00:37:05;179.60;;;129.60;;
5465;SDS011;2755;50.728;7.108;2023-07-31T00:39:33;179.27;;;132.27;;
5465;SDS011;2755;50.728;7.108;2023-07-31T00:41:59;180.27;;;132.17;;
5465;SDS011;2755;50.728;7.108;2023-07-31T00:44:25;181.87;;;134.07;;
5465;SDS011;2755;50.728;7.108;2023-07-31T00:46:50;181.27;;;132.97;;
5465;SDS011;2755;50.728;7.108;2023-07-31T00:49:16;180.13;;;132.13;;
5465;SDS011;2755;50.728;7.108;2023-07-31T00:51:41;181.03;;;132.57;;
5465;SDS011;2755;50.728;7.108;2023-07-31T00:54:07;183.03;;;135.90;;
5465;SDS011;2755;50.728;7.108;2023-07-31T00:56:33;181.90;;;135.90;;
5465;SDS011;2755;50.728;7.108;2023-07-31T00:58:59;180.70;;;131.93;;
5465;SDS011;2755;50.728;7.108;2023-07-31T01:01:24;182.17;;;135.10;;
5465;SDS011;2755;50.728;7.108;2023-07-31T01:03:50;182.97;;;137.77;;
5465;SDS011;2755;50.728;7.108;2023-07-31T01:06:25;181.17;;;132.87;;
5465;SDS011;2755;50.728;7.108;2023-07-31T01:12:02;177.73;;;127.70;;
5465;SDS011;2755;50.728;7.108;2023-07-31T01:14:29;185.07;;;139.27;;
5465;SDS011;2755;50.728;7.108;2023-07-31T01:16:54;180.53;;;132.07;;
5465;SDS011;2755;50.728;7.108;2023-07-31T01:19:22;183.00;;;136.90;;
5465;SDS011;2755;50.728;7.108;2023-07-31T01:22:12;177.87;;;130.43;;
5465;SDS011;2755;50.728;7.108;2023-07-31T01:27:59;183.17;;;135.87;;
5465;SDS011;2755;50.728;7.108;2023-07-31T01:30:34;177.27;;;130.53;;
5465;SDS011;2755;50.728;7.108;2023-07-31T01:33:05;176.00;;;130.93;;
5465;SDS011;2755;50.728;7.108;2023-07-31T01:35:36;179.97;;;136.57;;
5465;SDS011;2755;50.728;7.108;2023-07-31T01:38:02;181.50;;;141.90;;
5465;SDS011;2755;50.728;7.108;2023-07-31T01:40:28;176.63;;;134.20;;
5465;SDS011;2755;50.728;7.108;2023-07-31T01:42:54;175.37;;;130.97;;
5465;SDS011;2755;50.728;7.108;2023-07-31T01:45:20;175.70;;;129.03;;
5465;SDS011;2755;50.728;7.108;2023-07-31T01:47:45;180.93;;;136.63;;
5465;SDS011;2755;50.728;7.108;2023-07-31T01:52:47;177.43;;;133.67;;
5465;SDS011;2755;50.728;7.108;2023-07-31T01:55:13;176.77;;;134.73;;
5465;SDS011;2755;50.728;7.108;2023-07-31T01:57:38;179.03;;;137.07;;
5465;SDS011;2755;50.728;7.108;2023-07-31T02:00:04;175.17;;;130.97;;
5465;SDS011;2755;50.728;7.108;2023-07-31T02:02:31;176.40;;;132.87;;
5465;SDS011;2755;50.728;7.108;2023-07-31T02:04:57;176.17;;;130.37;;
5465;SDS011;2755;50.728;7.108;2023-07-31T02:07:22;174.47;;;130.57;;
5465;SDS011;2755;50.728;7.108;2023-07-31T02:09:48;173.17;;;127.80;;
5465;SDS011;2755;50.728;7.108;2023-07-31T02:12:14;176.40;;;130.43;;
5465;SDS011;2755;50.728;7.108;2023-07-31T02:14:40;175.20;;;129.87;;
5465;SDS011;2755;50.728;7.108;2023-07-31T02:17:06;174.07;;;128.73;;
5465;SDS011;2755;50.728;7.108;2023-07-31T02:19:31;175.63;;;129.57;;
5465;SDS011;2755;50.728;7.108;2023-07-31T02:21:57;176.57;;;129.53;;
5465;SDS011;2755;50.728;7.108;2023-07-31T02:24:23;174.07;;;129.63;;
5465;SDS011;2755;50.728;7.108;2023-07-31T02:26:49;174.30;;;129.17;;
5465;SDS011;2755;50.728;7.108;2023-07-31T02:29:15;176.57;;;131.60;;
5465;SDS011;2755;50.728;7.108;2023-07-31T02:31:40;175.87;;;129.10;;
5465;SDS011;2755;50.728;7.108;2023-07-31T02:34:06;174.27;;;128.07;;
5465;SDS011;2755;50.728;7.108;2023-07-31T02:36:32;172.77;;;127.53;;
5465;SDS011;2755;50.728;7.108;2023-07-31T02:38:57;174.17;;;128.43;;
5465;SDS011;2755;50.728;7.108;2023-07-31T02:41:23;177.37;;;131.40;;
5465;SDS011;2755;50.728;7.108;2023-07-31T02:43:49;174.43;;;127.97;;
5465;SDS011;2755;50.728;7.108;2023-07-31T02:46:14;174.63;;;129.23;;
5465;SDS011;2755;50.728;7.108;2023-07-31T02:48:40;175.97;;;129.80;;
5465;SDS011;2755;50.728;7.108;2023-07-31T02:51:05;176.73;;;131.40;;
5465;SDS011;2755;50.728;7.108;2023-07-31T02:53:31;173.23;;;126.80;;
5465;SDS011;2755;50.728;7.108;2023-07-31T02:55:56;174.23;;;126.97;;
5465;SDS011;2755;50.728;7.108;2023-07-31T02:58:22;178.50;;;133.30;;
5465;SDS011;2755;50.728;7.108;2023-07-31T03:00:47;176.10;;;132.17;;
5465;SDS011;2755;50.728;7.108;2023-07-31T03:03:13;174.77;;;128.93;;
5465;SDS011;2755;50.728;7.108;2023-07-31T03:05:38;172.57;;;126.37;;
5465;SDS011;2755;50.728;7.108;2023-07-31T03:08:04;172.47;;;126.77;;
5465;SDS011;2755;50.728;7.108;2023-07-31T03:10:29;177.77;;;133.97;;
5465;SDS011;2755;50.728;7.108;2023-07-31T03:12:55;172.97;;;126.57;;
5465;SDS011;2755;50.728;7.108;2023-07-31T03:15:21;176.33;;;128.73;;
5465;SDS011;2755;50.728;7.108;2023-07-31T03:17:46;174.07;;;128.23;;
5465;SDS011;2755;50.728;7.108;2023-07-31T03:20:12;173.77;;;126.23;;
5465;SDS011;2755;50.728;7.108;2023-07-31T03:22:37;174.27;;;129.47;;
5465;SDS011;2755;50.728;7.108;2023-07-31T03:25:03;179.00;;;136.37;;
5465;SDS011;2755;50.728;7.108;2023-07-31T03:27:29;178.47;;;136.17;;
5465;SDS011;2755;50.728;7.108;2023-07-31T03:29:54;178.83;;;136.90;;
5465;SDS011;2755;50.728;7.108;2023-07-31T03:32:20;179.87;;;139.73;;
5465;SDS011;2755;50.728;7.108;2023-07-31T03:34:46;179.13;;;137.87;;
5465;SDS011;2755;50.728;7.108;2023-07-31T03:37:11;181.23;;;140.73;;
5465;SDS011;2755;50.728;7.108;2023-07-31T03:39:37;176.77;;;134.00;;
5465;SDS011;2755;50.728;7.108;2023-07-31T03:42:03;177.23;;;133.63;;
5465;SDS011;2755;50.728;7.108;2023-07-31T03:44:28;178.67;;;135.00;;
5465;SDS011;2755;50.728;7.108;2023-07-31T03:46:55;173.70;;;128.57;;
5465;SDS011;2755;50.728;7.108;2023-07-31T03:49:21;175.57;;;129.87;;
5465;SDS011;2755;50.728;7.108;2023-07-31T03:51:46;176.47;;;130.93;;
5465;SDS011;2755;50.728;7.108;2023-07-31T03:54:12;175.00;;;126.47;;
5465;SDS011;2755;50.728;7.108;2023-07-31T03:56:38;178.80;;;132.80;;
5465;SDS011;2755;50.728;7.108;2023-07-31T03:59:04;179.47;;;134.13;;
5465;SDS011;2755;50.728;7.108;2023-07-31T04:01:30;179.57;;;134.10;;
5465;SDS011;2755;50.728;7.108;2023-07-31T04:03:55;179.57;;;130.73;;
5465;SDS011;2755;50.728;7.108;2023-07-31T04:06:21;175.47;;;130.03;;
5465;SDS011;2755;50.728;7.108;2023-07-31T04:08:47;180.13;;;133.77;;
5465;SDS011;2755;50.728;7.108;2023-07-31T04:11:12;181.17;;;136.00;;
5465;SDS011;2755;50.728;7.108;2023-07-31T04:13:38;181.67;;;136.17;;
5465;SDS011;2755;50.728;7.108;2023-07-31T04:16:04;178.13;;;130.07;;
5465;SDS011;2755;50.728;7.108;2023-07-31T04:18:31;180.37;;;134.33;;
5465;SDS011;2755;50.728;7.108;2023-07-31T04:20:57;181.63;;;137.00;;
5465;SDS011;2755;50.728;7.108;2023-07-31T04:23:23;180.13;;;133.60;;
5465;SDS011;2755;50.728;7.108;2023-07-31T04:25:52;179.47;;;132.07;;
5465;SDS011;2755;50.728;7.108;2023-07-31T04:28:17;181.47;;;135.30;;
5465;SDS011;2755;50.728;7.108;2023-07-31T04:30:43;183.63;;;139.63;;
5465;SDS011;2755;50.728;7.108;2023-07-31T04:33:09;180.77;;;134.90;;
5465;SDS011;2755;50.728;7.108;2023-07-31T04:35:34;178.87;;;130.67;;
5465;SDS011;2755;50.728;7.108;2023-07-31T04:38:00;177.97;;;130.50;;
5465;SDS011;2755;50.728;7.108;2023-07-31T04:40:26;181.40;;;134.23;;
5465;SDS011;2755;50.728;7.108;2023-07-31T04:42:51;181.53;;;136.23;;
5465;SDS011;2755;50.728;7.108;2023-07-31T04:45:17;182.97;;;136.87;;
5465;SDS011;2755;50.728;7.108;2023-07-31T04:47:42;181.40;;;134.83;;
5465;SDS011;2755;50.728;7.108;2023-07-31T04:50:08;183.83;;;139.83;;
5465;SDS011;2755;50.728;7.108;2023-07-31T04:52:34;182.83;;;135.87;;
5465;SDS011;2755;50.728;7.108;2023-07-31T04:54:59;186.53;;;140.97;;
5465;SDS011;2755;50.728;7.108;2023-07-31T04:57:25;191.20;;;152.10;;
5465;SDS011;2755;50.728;7.108;2023-07-31T04:59:51;187.73;;;144.43;;
5465;SDS011;2755;50.728;7.108;2023-07-31T05:02:16;190.33;;;150.53;;
5465;SDS011;2755;50.728;7.108;2023-07-31T05:04:42;195.07;;;155.10;;
5465;SDS011;2755;50.728;7.108;2023-07-31T05:07:08;191.63;;;150.33;;
5465;SDS011;2755;50.728;7.108;2023-07-31T05:09:34;196.80;;;158.00;;
5465;SDS011;2755;50.728;7.108;2023-07-31T05:12:00;197.33;;;161.87;;
5465;SDS011;2755;50.728;7.108;2023-07-31T05:14:25;192.80;;;152.53;;
5465;SDS011;2755;50.728;7.108;2023-07-31T05:16:51;197.60;;;161.90;;
5465;SDS011;2755;50.728;7.108;2023-07-31T05:19:17;198.67;;;165.40;;
5465;SDS011;2755;50.728;7.108;2023-07-31T05:21:43;198.70;;;163.97;;
5465;SDS011;2755;50.728;7.108;2023-07-31T05:24:09;202.40;;;173.47;;
5465;SDS011;2755;50.728;7.108;2023-07-31T05:26:35;196.57;;;162.90;;
5465;SDS011;2755;50.728;7.108;2023-07-31T05:29:01;206.07;;;178.13;;
5465;SDS011;2755;50.728;7.108;2023-07-31T05:31:27;206.80;;;180.17;;
5465;SDS011;2755;50.728;7.108;2023-07-31T05:33:52;202.73;;;176.63;;
5465;SDS011;2755;50.728;7.108;2023-07-31T05:36:18;202.80;;;174.30;;
5465;SDS011;2755;50.728;7.108;2023-07-31T05:38:44;203.43;;;178.03;;
5465;SDS011;2755;50.728;7.108;2023-07-31T05:41:10;205.77;;;182.17;;
5465;SDS011;2755;50.728;7.108;2023-07-31T05:43:37;206.97;;;182.90;;
5465;SDS011;2755;50.728;7.108;2023-07-31T05:46:02;205.47;;;181.80;;
5465;SDS011;2755;50.728;7.108;2023-07-31T05:48:28;205.77;;;182.87;;
5465;SDS011;2755;50.728;7.108;2023-07-31T05:50:54;213.03;;;189.77;;
5465;SDS011;2755;50.728;7.108;2023-07-31T05:53:19;204.23;;;177.93;;
5465;SDS011;2755;50.728;7.108;2023-07-31T05:55:45;201.10;;;171.70;;
5465;SDS011;2755;50.728;7.108;2023-07-31T05:58:10;208.10;;;185.20;;
5465;SDS011;2755;50.728;7.108;2023-07-31T06:00:36;202.87;;;177.77;;
5465;SDS011;2755;50.728;7.108;2023-07-31T06:03:01;207.07;;;183.70;;
5465;SDS011;2755;50.728;7.108;2023-07-31T06:05:27;206.83;;;182.37;;
5465;SDS011;2755;50.728;7.108;2023-07-31T06:07:54;203.20;;;174.50;;
5465;SDS011;2755;50.728;7.108;2023-07-31T06:10:20;206.30;;;181.20;;
5465;SDS011;2755;50.728;7.108;2023-07-31T06:12:46;204.83;;;180.00;;
5465;SDS011;2755;50.728;7.108;2023-07-31T06:15:12;205.77;;;177.93;;
5465;SDS011;2755;50.728;7.108;2023-07-31T06:17:38;203.03;;;176.07;;
5465;SDS011;2755;50.728;7.108;2023-07-31T06:20:03;195.27;;;160.47;;
5465;SDS011;2755;50.728;7.108;2023-07-31T06:22:30;188.63;;;146.30;;
5465;SDS011;2755;50.728;7.108;2023-07-31T06:24:56;184.07;;;139.57;;
5465;SDS011;2755;50.728;7.108;2023-07-31T06:27:22;178.60;;;133.13;;
5465;SDS011;2755;50.728;7.108;2023-07-31T06:29:48;179.53;;;136.57;;
5465;SDS011;2755;50.728;7.108;2023-07-31T06:32:13;179.80;;;138.47;;
5465;SDS011;2755;50.728;7.108;2023-07-31T06:34:39;180.57;;;138.83;;
5465;SDS011;2755;50.728;7.108;2023-07-31T06:37:04;183.10;;;141.73;;
5465;SDS011;2755;50.728;7.108;2023-07-31T06:39:30;176.27;;;129.10;;
5465;SDS011;2755;50.728;7.108;2023-07-31T06:41:56;181.47;;;137.90;;
5465;SDS011;2755;50.728;7.108;2023-07-31T06:44:22;182.50;;;140.83;;
5465;SDS011;2755;50.728;7.108;2023-07-31T06:46:48;185.73;;;149.77;;
5465;SDS011;2755;50.728;7.108;2023-07-31T06:49:13;189.67;;;156.17;;
5465;SDS011;2755;50.728;7.108;2023-07-31T06:51:40;198.67;;;175.20;;
5465;SDS011;2755;50.728;7.108;2023-07-31T06:54:06;202.30;;;179.90;;
5465;SDS011;2755;50.728;7.108;2023-07-31T06:56:32;208.83;;;186.00;;
5465;SDS011;2755;50.728;7.108;2023-07-31T06:58:58;204.43;;;181.73;;
5465;SDS011;2755;50.728;7.108;2023-07-31T07:01:24;200.40;;;174.83;;
5465;SDS011;2755;50.728;7.108;2023-07-31T07:03:50;198.20;;;169.17;;
5465;SDS011;2755;50.728;7.108;2023-07-31T07:06:19;185.90;;;149.17;;
5465;SDS011;2755;50.728;7.108;2023-07-31T07:08:47;181.27;;;141.07;;
5465;SDS011;2755;50.728;7.108;2023-07-31T07:11:14;178.37;;;136.27;;
5465;SDS011;2755;50.728;7.108;2023-07-31T07:13:40;179.20;;;137.77;;
5465;SDS011;2755;50.728;7.108;2023-07-31T07:16:06;182.13;;;140.53;;
5465;SDS011;2755;50.728;7.108;2023-07-31T07:18:32;187.20;;;148.27;;
5465;SDS011;2755;50.728;7.108;2023-07-31T07:20:57;191.20;;;156.37;;
5465;SDS011;2755;50.728;7.108;2023-07-31T07:23:23;187.47;;;149.50;;
5465;SDS011;2755;50.728;7.108;2023-07-31T07:25:49;189.40;;;152.13;;
5465;SDS011;2755;50.728;7.108;2023-07-31T07:28:16;191.17;;;159.73;;
5465;SDS011;2755;50.728;7.108;2023-07-31T07:30:41;191.87;;;158.43;;
5465;SDS011;2755;50.728;7.108;2023-07-31T07:33:07;187.57;;;149.33;;
5465;SDS011;2755;50.728;7.108;2023-07-31T07:35:33;189.83;;;152.93;;
5465;SDS011;2755;50.728;7.108;2023-07-31T07:38:00;189.67;;;152.67;;
5465;SDS011;2755;50.728;7.108;2023-07-31T07:40:26;189.37;;;151.00;;
5465;SDS011;2755;50.728;7.108;2023-07-31T07:42:52;190.17;;;154.33;;
5465;SDS011;2755;50.728;7.108;2023-07-31T07:45:17;187.33;;;147.10;;
5465;SDS011;2755;50.728;7.108;2023-07-31T07:47:43;189.03;;;152.20;;
5465;SDS011;2755;50.728;7.108;2023-07-31T07:50:09;191.20;;;155.77;;
5465;SDS011;2755;50.728;7.108;2023-07-31T07:52:34;193.07;;;158.33;;
5465;SDS011;2755;50.728;7.108;2023-07-31T07:55:00;191.07;;;155.67;;
5465;SDS011;2755;50.728;7.108;2023-07-31T07:57:26;187.30;;;147.70;;
5465;SDS011;2755;50.728;7.108;2023-07-31T07:59:52;182.00;;;138.40;;
5465;SDS011;2755;50.728;7.108;2023-07-31T08:02:18;187.27;;;147.07;;
5465;SDS011;2755;50.728;7.108;2023-07-31T08:04:43;180.50;;;139.07;;
5465;SDS011;2755;50.728;7.108;2023-07-31T08:07:12;181.67;;;141.53;;
5465;SDS011;2755;50.728;7.108;2023-07-31T08:09:38;181.47;;;139.47;;
5465;SDS011;2755;50.728;7.108;2023-07-31T08:12:04;184.17;;;145.03;;
5465;SDS011;2755;50.728;7.108;2023-07-31T08:14:30;187.57;;;151.37;;
5465;SDS011;2755;50.728;7.108;2023-07-31T08:16:56;185.50;;;145.57;;
5465;SDS011;2755;50.728;7.108;2023-07-31T08:19:22;184.33;;;142.77;;
5465;SDS011;2755;50.728;7.108;2023-07-31T08:21:47;186.47;;;145.30;;
5465;SDS011;2755;50.728;7.108;2023-07-31T08:24:13;185.67;;;144.37;;
5465;SDS011;2755;50.728;7.108;2023-07-31T08:26:39;180.13;;;136.80;;
5465;SDS011;2755;50.728;7.108;2023-07-31T08:29:05;177.03;;;132.03;;
5465;SDS011;2755;50.728;7.108;2023-07-31T08:31:31;175.87;;;129.03;;
5465;SDS011;2755;50.728;7.108;2023-07-31T08:33:56;180.17;;;136.07;;
5465;SDS011;2755;50.728;7.108;2023-07-31T08:36:22;180.40;;;135.13;;
5465;SDS011;2755;50.728;7.108;2023-07-31T08:38:48;180.63;;;136.43;;
5465;SDS011;2755;50.728;7.108;2023-07-31T08:41:14;177.03;;;131.47;;
5465;SDS011;2755;50.728;7.108;2023-07-31T08:43:42;182.03;;;138.50;;
5465;SDS011;2755;50.728;7.108;2023-07-31T08:46:10;182.80;;;137.97;;
5465;SDS011;2755;50.728;7.108;2023-07-31T08:48:37;181.17;;;137.17;;
5465;SDS011;2755;50.728;7.108;2023-07-31T08:51:05;182.93;;;137.30;;
5465;SDS011;2755;50.728;7.108;2023-07-31T08:53:32;180.83;;;135.80;;
5465;SDS011;2755;50.728;7.108;2023-07-31T08:55:58;184.50;;;140.07;;
5465;SDS011;2755;50.728;7.108;2023-07-31T08:58:24;189.00;;;146.57;;
5465;SDS011;2755;50.728;7.108;2023-07-31T09:00:52;189.03;;;148.97;;
5465;SDS011;2755;50.728;7.108;2023-07-31T09:03:20;188.47;;;147.43;;
5465;SDS011;2755;50.728;7.108;2023-07-31T09:05:47;192.27;;;153.43;;
5465;SDS011;2755;50.728;7.108;2023-07-31T09:08:14;193.93;;;158.90;;
5465;SDS011;2755;50.728;7.108;2023-07-31T09:10:43;194.50;;;160.33;;
5465;SDS011;2755;50.728;7.108;2023-07-31T09:13:11;194.27;;;158.83;;
5465;SDS011;2755;50.728;7.108;2023-07-31T09:15:38;192.10;;;154.80;;
5465;SDS011;2755;50.728;7.108;2023-07-31T09:18:05;188.00;;;147.50;;
5465;SDS011;2755;50.728;7.108;2023-07-31T09:20:32;187.50;;;147.33;;
5465;SDS011;2755;50.728;7.108;2023-07-31T09:23:05;186.67;;;148.13;;
5465;SDS011;2755;50.728;7.108;2023-07-31T09:25:33;183.17;;;139.27;;
5465;SDS011;2755;50.728;7.108;2023-07-31T09:28:00;185.47;;;144.80;;
5465;SDS011;2755;50.728;7.108;2023-07-31T09:30:27;186.57;;;145.73;;
5465;SDS011;2755;50.728;7.108;2023-07-31T09:33:05;184.97;;;142.17;;
5465;SDS011;2755;50.728;7.108;2023-07-31T09:35:38;187.27;;;147.57;;
5465;SDS011;2755;50.728;7.108;2023-07-31T09:38:07;188.10;;;148.77;;
5465;SDS011;2755;50.728;7.108;2023-07-31T09:40:37;187.60;;;148.37;;
5465;SDS011;2755;50.728;7.108;2023-07-31T09:43:11;194.43;;;160.60;;
5465;SDS011;2755;50.728;7.108;2023-07-31T09:45:47;196.97;;;164.37;;
5465;SDS011;2755;50.728;7.108;2023-07-31T09:48:16;198.33;;;167.90;;
5465;SDS011;2755;50.728;7.108;2023-07-31T09:50:47;202.50;;;177.03;;
5465;SDS011;2755;50.728;7.108;2023-07-31T09:53:13;201.27;;;171.80;;
5465;SDS011;2755;50.728;7.108;2023-07-31T09:55:40;207.27;;;184.37;;
5465;SDS011;2755;50.728;7.108;2023-07-31T09:58:07;203.97;;;177.70;;
5465;SDS011;2755;50.728;7.108;2023-07-31T10:00:34;205.67;;;180.00;;
5465;SDS011;2755;50.728;7.108;2023-07-31T10:03:10;213.10;;;189.70;;
5465;SDS011;2755;50.728;7.108;2023-07-31T10:05:38;211.67;;;188.37;;
5465;SDS011;2755;50.728;7.108;2023-07-31T10:08:06;211.77;;;188.47;;
5465;SDS011;2755;50.728;7.108;2023-07-31T10:10:34;231.40;;;207.00;;
5465;SDS011;2755;50.728;7.108;2023-07-31T10:13:01;238.97;;;214.00;;
5465;SDS011;2755;50.728;7.108;2023-07-31T10:15:27;255.23;;;229.53;;
5465;SDS011;2755;50.728;7.108;2023-07-31T10:17:54;254.77;;;229.07;;
5465;SDS011;2755;50.728;7.108;2023-07-31T10:20:21;232.73;;;208.23;;
5465;SDS011;2755;50.728;7.108;2023-07-31T10:22:47;277.03;;;250.00;;
5465;SDS011;2755;50.728;7.108;2023-07-31T10:25:15;270.37;;;244.10;;
5465;SDS011;2755;50.728;7.108;2023-07-31T10:27:42;262.27;;;236.13;;
5465;SDS011;2755;50.728;7.108;2023-07-31T10:30:10;207.33;;;177.50;;
5465;SDS011;2755;50.728;7.108;2023-07-31T10:32:39;202.47;;;172.40;;
5465;SDS011;2755;50.728;7.108;2023-07-31T10:35:06;215.97;;;192.47;;
5465;SDS011;2755;50.728;7.108;2023-07-31T10:37:38;239.50;;;215.10;;
5465;SDS011;2755;50.728;7.108;2023-07-31T10:40:23;216.60;;;193.10;;
5465;SDS011;2755;50.728;7.108;2023-07-31T10:42:56;187.17;;;144.70;;
5465;SDS011;2755;50.728;7.108;2023-07-31T10:45:32;195.60;;;163.47;;
5465;SDS011;2755;50.728;7.108;2023-07-31T10:48:05;216.10;;;192.80;;
5465;SDS011;2755;50.728;7.108;2023-07-31T10:50:37;198.63;;;167.03;;
5465;SDS011;2755;50.728;7.108;2023-07-31T10:53:04;207.13;;;184.07;;
5465;SDS011;2755;50.728;7.108;2023-07-31T10:55:42;219.87;;;196.07;;
5465;SDS011;2755;50.728;7.108;2023-07-31T10:58:12;203.00;;;167.17;;
5465;SDS011;2755;50.728;7.108;2023-07-31T11:00:39;196.33;;;150.03;;
5465;SDS011;2755;50.728;7.108;2023-07-31T11:03:16;193.57;;;148.33;;
5465;SDS011;2755;50.728;7.108;2023-07-31T11:10:46;189.47;;;145.03;;
5465;SDS011;2755;50.728;7.108;2023-07-31T11:13:13;187.43;;;143.80;;
5465;SDS011;2755;50.728;7.108;2023-07-31T11:15:39;190.33;;;149.63;;
5465;SDS011;2755;50.728;7.108;2023-07-31T11:18:05;199.07;;;163.43;;
5465;SDS011;2755;50.728;7.108;2023-07-31T11:20:33;194.77;;;155.10;;
5465;SDS011;2755;50.728;7.108;2023-07-31T11:23:00;190.63;;;147.83;;
5465;SDS011;2755;50.728;7.108;2023-07-31T11:25:28;197.43;;;158.43;;
5465;SDS011;2755;50.728;7.108;2023-07-31T11:28:04;192.43;;;151.70;;
5465;SDS011;2755;50.728;7.108;2023-07-31T11:30:31;190.53;;;147.87;;
5465;SDS011;2755;50.728;7.108;2023-07-31T11:32:57;195.10;;;159.07;;
5465;SDS011;2755;50.728;7.108;2023-07-31T11:35:22;197.07;;;159.03;;
5465;SDS011;2755;50.728;7.108;2023-07-31T11:37:48;193.33;;;152.87;;
5465;SDS011;2755;50.728;7.108;2023-07-31T11:40:14;190.60;;;148.77;;
5465;SDS011;2755;50.728;7.108;2023-07-31T11:42:41;194.47;;;157.57;;
5465;SDS011;2755;50.728;7.108;2023-07-31T11:45:09;188.17;;;147.27;;
5465;SDS011;2755;50.728;7.108;2023-07-31T11:47:36;192.77;;;154.83;;
5465;SDS011;2755;50.728;7.108;2023-07-31T11:50:05;198.83;;;162.07;;
5465;SDS011;2755;50.728;7.108;2023-07-31T11:52:38;195.63;;;156.30;;
5465;SDS011;2755;50.728;7.108;2023-07-31T11:55:12;188.90;;;148.87;;
5465;SDS011;2755;50.728;7.108;2023-07-31T11:57:46;192.73;;;156.03;;
5465;SDS011;2755;50.728;7.108;2023-07-31T12:00:15;192.33;;;151.13;;
5465;SDS011;2755;50.728;7.108;2023-07-31T12:02:43;195.33;;;152.93;;
5465;SDS011;2755;50.728;7.108;2023-07-31T12:05:19;199.60;;;161.73;;
5465;SDS011;2755;50.728;7.108;2023-07-31T12:07:55;201.40;;;167.63;;
5465;SDS011;2755;50.728;7.108;2023-07-31T12:10:25;197.87;;;160.97;;
5465;SDS011;2755;50.728;7.108;2023-07-31T12:13:02;193.73;;;157.53;;
5465;SDS011;2755;50.728;7.108;2023-07-31T12:18:24;239.47;;;214.73;;
5465;SDS011;2755;50.728;7.108;2023-07-31T12:20:58;241.67;;;217.00;;
5465;SDS011;2755;50.728;7.108;2023-07-31T12:23:31;198.87;;;169.97;;
5465;SDS011;2755;50.728;7.108;2023-07-31T12:26:03;193.83;;;154.40;;
5465;SDS011;2755;50.728;7.108;2023-07-31T12:28:30;192.20;;;150.13;;
5465;SDS011;2755;50.728;7.108;2023-07-31T12:30:58;192.03;;;150.93;;
5465;SDS011;2755;50.728;7.108;2023-07-31T12:33:34;192.57;;;153.00;;
5465;SDS011;2755;50.728;7.108;2023-07-31T12:36:08;197.60;;;167.33;;
5465;SDS011;2755;50.728;7.108;2023-07-31T12:38:43;194.00;;;159.23;;
5465;SDS011;2755;50.728;7.108;2023-07-31T12:41:12;192.30;;;152.33;;
5465;SDS011;2755;50.728;7.108;2023-07-31T12:43:40;192.73;;;157.57;;
5465;SDS011;2755;50.728;7.108;2023-07-31T12:46:12;203.07;;;176.17;;
5465;SDS011;2755;50.728;7.108;2023-07-31T12:48:38;198.53;;;171.37;;
5465;SDS011;2755;50.728;7.108;2023-07-31T12:51:04;205.07;;;180.23;;
5465;SDS011;2755;50.728;7.108;2023-07-31T12:53:36;212.13;;;189.03;;
5465;SDS011;2755;50.728;7.108;2023-07-31T12:56:01;198.07;;;165.10;;
5465;SDS011;2755;50.728;7.108;2023-07-31T12:58:28;196.77;;;164.53;;
5465;SDS011;2755;50.728;7.108;2023-07-31T13:00:54;196.80;;;161.70;;
5465;SDS011;2755;50.728;7.108;2023-07-31T13:03:22;192.70;;;154.87;;
5465;SDS011;2755;50.728;7.108;2023-07-31T13:05:52;187.53;;;147.80;;
5465;SDS011;2755;50.728;7.108;2023-07-31T13:08:18;186.63;;;146.27;;
5465;SDS011;2755;50.728;7.108;2023-07-31T13:13:53;183.20;;;142.57;;
5465;SDS011;2755;50.728;7.108;2023-07-31T13:16:22;189.07;;;149.17;;
5465;SDS011;2755;50.728;7.108;2023-07-31T13:18:48;189.27;;;149.87;;
5465;SDS011;2755;50.728;7.108;2023-07-31T13:21:16;193.37;;;158.57;;
5465;SDS011;2755;50.728;7.108;2023-07-31T13:23:55;197.23;;;166.67;;
5465;SDS011;2755;50.728;7.108;2023-07-31T13:26:23;190.83;;;153.70;;
5465;SDS011;2755;50.728;7.108;2023-07-31T13:28:49;190.47;;;155.33;;
5465;SDS011;2755;50.728;7.108;2023-07-31T13:31:17;193.03;;;153.80;;
5465;SDS011;2755;50.728;7.108;2023-07-31T13:33:46;190.03;;;152.23;;
5465;SDS011;2755;50.728;7.108;2023-07-31T13:36:17;188.10;;;148.83;;
5465;SDS011;2755;50.728;7.108;2023-07-31T13:38:51;188.40;;;149.60;;
5465;SDS011;2755;50.728;7.108;2023-07-31T13:41:17;185.57;;;145.43;;
5465;SDS011;2755;50.728;7.108;2023-07-31T13:43:46;185.17;;;144.17;;
5465;SDS011;2755;50.728;7.108;2023-07-31T13:46:12;183.97;;;143.03;;
5465;SDS011;2755;50.728;7.108;2023-07-31T13:51:30;181.27;;;139.47;;
5465;SDS011;2755;50.728;7.108;2023-07-31T13:53:56;185.67;;;145.20;;
5465;SDS011;2755;50.728;7.108;2023-07-31T13:56:22;191.43;;;146.97;;
5465;SDS011;2755;50.728;7.108;2023-07-31T13:58:51;188.47;;;151.53;;
5465;SDS011;2755;50.728;7.108;2023-07-31T14:03:58;189.27;;;153.57;;
5465;SDS011;2755;50.728;7.108;2023-07-31T14:06:24;198.17;;;168.97;;
5465;SDS011;2755;50.728;7.108;2023-07-31T14:08:53;194.17;;;160.03;;
5465;SDS011;2755;50.728;7.108;2023-07-31T14:11:20;202.30;;;177.63;;
5465;SDS011;2755;50.728;7.108;2023-07-31T14:13:50;204.00;;;177.87;;
5465;SDS011;2755;50.728;7.108;2023-07-31T14:16:43;205.67;;;179.30;;
5465;SDS011;2755;50.728;7.108;2023-07-31T14:19:12;206.83;;;181.97;;
5465;SDS011;2755;50.728;7.108;2023-07-31T14:21:47;209.40;;;186.50;;
5465;SDS011;2755;50.728;7.108;2023-07-31T14:24:15;201.73;;;177.60;;
5465;SDS011;2755;50.728;7.108;2023-07-31T14:26:44;201.50;;;179.17;;
5465;SDS011;2755;50.728;7.108;2023-07-31T14:29:10;210.47;;;187.57;;
5465;SDS011;2755;50.728;7.108;2023-07-31T14:31:36;204.77;;;181.73;;
5465;SDS011;2755;50.728;7.108;2023-07-31T14:34:03;206.27;;;183.27;;
5465;SDS011;2755;50.728;7.108;2023-07-31T14:36:28;209.17;;;186.20;;
5465;SDS011;2755;50.728;7.108;2023-07-31T14:38:57;202.17;;;175.17;;
5465;SDS011;2755;50.728;7.108;2023-07-31T14:41:29;194.70;;;160.93;;
5465;SDS011;2755;50.728;7.108;2023-07-31T14:43:55;189.83;;;150.87;;
5465;SDS011;2755;50.728;7.108;2023-07-31T14:46:23;187.77;;;148.10;;